createdAt,value
2022-08-11T00:00:41.420Z,71.73
2022-08-11T00:01:31.430Z,71.94
2022-08-11T00:02:21.465Z,72.25
2022-08-11T00:03:11.454Z,71.64
2022-08-11T00:04:01.398Z,71.53
2022-08-11T00:04:51.370Z,71.94
2022-08-11T00:05:41.371Z,72.34
2022-08-11T00:06:31.377Z,72.55
2022-08-11T00:07:21.350Z,72.34
2022-08-11T00:08:11.338Z,71.84
2022-08-11T00:09:01.358Z,71.73
2022-08-11T00:09:51.339Z,72.04
2022-08-11T00:10:41.339Z,72.34
2022-08-11T00:11:31.302Z,72.45
2022-08-11T00:12:21.307Z,72.85
2022-08-11T00:13:11.299Z,72.65
2022-08-11T00:14:02.278Z,72.65
2022-08-11T00:14:51.260Z,72.48
2022-08-11T00:15:41.271Z,72.58
2022-08-11T00:16:31.259Z,72.89
2022-08-11T00:17:21.250Z,73.09
2022-08-11T00:18:11.231Z,73.09
2022-08-11T00:19:01.229Z,72.99
2022-08-11T00:20:12.686Z,72.89
2022-08-11T00:20:42.209Z,72.99
2022-08-11T00:22:02.973Z,73.19
2022-08-11T00:22:22.188Z,72.99
2022-08-11T00:23:11.168Z,72.89
2022-08-11T00:24:01.177Z,73.19
2022-08-11T00:24:54.005Z,73.70
2022-08-11T00:25:42.159Z,73.09
2022-08-11T00:26:31.136Z,73.29
2022-08-11T00:27:21.158Z,73.60
2022-08-11T00:28:11.147Z,73.29
2022-08-11T00:29:01.107Z,73.09
2022-08-11T00:29:51.854Z,73.50
2022-08-11T00:30:41.095Z,73.50
2022-08-11T00:31:31.098Z,73.43
2022-08-11T00:32:21.087Z,73.63
2022-08-11T00:33:11.067Z,73.63
2022-08-11T00:34:01.087Z,73.63
2022-08-11T00:34:51.037Z,73.94
2022-08-11T00:35:53.703Z,73.63
2022-08-11T00:36:32.046Z,74.24
2022-08-11T00:37:21.017Z,74.04
2022-08-11T00:38:11.026Z,74.04
2022-08-11T00:39:01.007Z,74.44
2022-08-11T00:39:51.086Z,74.34
2022-08-11T00:40:40.987Z,74.04
2022-08-11T00:41:30.967Z,74.14
2022-08-11T00:42:20.994Z,73.63
2022-08-11T00:43:11.572Z,73.74
2022-08-11T00:44:01.970Z,73.83
2022-08-11T00:44:50.938Z,73.83
2022-08-11T00:45:40.926Z,74.04
2022-08-11T00:46:30.936Z,73.83
2022-08-11T00:47:20.935Z,73.43
2022-08-11T00:48:10.888Z,73.63
2022-08-11T00:49:00.886Z,73.83
2022-08-11T00:49:50.866Z,74.14
2022-08-11T00:50:40.887Z,73.94
2022-08-11T00:52:02.341Z,73.53
2022-08-11T00:52:21.854Z,73.53
2022-08-11T00:53:10.839Z,73.33
2022-08-11T00:54:00.852Z,73.83
2022-08-11T00:54:50.837Z,73.33
2022-08-11T00:55:40.825Z,73.43
2022-08-11T00:56:31.827Z,73.74
2022-08-11T00:57:36.043Z,74.04
2022-08-11T00:58:11.775Z,74.38
2022-08-11T00:59:00.792Z,74.38
2022-08-11T00:59:50.774Z,74.58
2022-08-11T01:00:40.797Z,74.99
2022-08-11T01:01:30.831Z,75.02
2022-08-11T01:02:20.744Z,75.23
2022-08-11T01:03:10.766Z,75.73
2022-08-11T01:04:00.724Z,75.33
2022-08-11T01:04:55.546Z,74.72
2022-08-11T01:05:41.714Z,74.68
2022-08-11T01:06:30.684Z,75.49
2022-08-11T01:08:01.397Z,75.09
2022-08-11T01:08:11.705Z,75.49
2022-08-11T01:09:00.674Z,75.60
2022-08-11T01:09:50.684Z,75.29
2022-08-11T01:10:40.657Z,74.88
2022-08-11T01:11:30.647Z,75.49
2022-08-11T01:12:20.623Z,75.60
2022-08-11T01:13:10.613Z,75.60
2022-08-11T01:14:00.635Z,75.70
2022-08-11T01:14:50.595Z,74.99
2022-08-11T01:15:40.603Z,74.88
2022-08-11T01:16:30.574Z,74.99
2022-08-11T01:17:20.594Z,74.58
2022-08-11T01:18:10.566Z,74.28
2022-08-11T01:19:00.572Z,74.28
2022-08-11T01:20:39.442Z,74.88
2022-08-11T01:20:46.907Z,74.99
2022-08-11T01:21:31.539Z,75.19
2022-08-11T01:22:20.533Z,74.68
2022-08-11T01:23:12.591Z,74.99
2022-08-11T01:24:01.494Z,75.29
2022-08-11T01:24:50.485Z,75.09
2022-08-11T01:25:57.112Z,75.09
2022-08-11T01:26:31.473Z,74.79
2022-08-11T01:27:20.484Z,74.99
2022-08-11T01:28:10.454Z,74.92
2022-08-11T01:29:00.443Z,75.53
2022-08-11T01:29:50.443Z,75.43
2022-08-11T01:30:40.463Z,75.63
2022-08-11T01:31:30.423Z,75.63
2022-08-11T01:32:20.423Z,75.33
2022-08-11T01:33:10.402Z,75.73
2022-08-11T01:34:00.388Z,75.53
2022-08-11T01:34:50.373Z,75.73
2022-08-11T01:35:40.384Z,75.73
2022-08-11T01:36:30.362Z,75.94
2022-08-11T01:37:20.362Z,75.84
2022-08-11T01:38:10.343Z,76.04
2022-08-11T01:39:00.362Z,76.04
2022-08-11T01:39:50.379Z,75.73
2022-08-11T01:40:40.324Z,76.04
2022-08-11T01:41:30.312Z,75.84
2022-08-11T01:42:20.296Z,76.04
2022-08-11T01:43:10.321Z,76.14
2022-08-11T01:44:00.270Z,76.45
2022-08-11T01:44:50.278Z,76.55
2022-08-11T01:45:40.262Z,76.65
2022-08-11T01:46:30.252Z,76.34
2022-08-11T01:47:20.241Z,76.55
2022-08-11T01:48:10.223Z,76.55
2022-08-11T01:49:00.222Z,76.14
2022-08-11T01:50:08.283Z,76.14
2022-08-11T01:50:41.208Z,76.55
2022-08-11T01:51:30.238Z,76.34
2022-08-11T01:52:20.212Z,76.65
2022-08-11T01:53:11.172Z,76.45
2022-08-11T01:54:00.173Z,76.55
2022-08-11T01:54:50.171Z,76.68
2022-08-11T01:55:40.156Z,77.09
2022-08-11T01:56:30.147Z,77.29
2022-08-11T01:57:20.121Z,77.09
2022-08-11T01:58:10.150Z,77.09
2022-08-11T01:59:00.122Z,77.29
2022-08-11T01:59:50.111Z,76.99
2022-08-11T02:00:40.149Z,76.59
2022-08-11T02:01:30.101Z,76.79
2022-08-11T02:02:21.649Z,76.68
2022-08-11T02:03:10.090Z,76.79
2022-08-11T02:04:00.061Z,77.09
2022-08-11T02:04:50.041Z,77.13
2022-08-11T02:05:40.049Z,76.92
2022-08-11T02:06:30.041Z,77.13
2022-08-11T02:07:20.029Z,77.44
2022-08-11T02:08:10.009Z,77.44
2022-08-11T02:08:59.990Z,77.74
2022-08-11T02:09:51.937Z,78.15
2022-08-11T02:10:39.980Z,77.94
2022-08-11T02:11:29.979Z,77.94
2022-08-11T02:12:19.970Z,77.74
2022-08-11T02:13:09.962Z,77.94
2022-08-11T02:13:59.960Z,77.94
2022-08-11T02:15:04.586Z,78.05
2022-08-11T02:15:40.929Z,78.45
2022-08-11T02:16:29.920Z,78.86
2022-08-11T02:17:19.945Z,78.96
2022-08-11T02:18:09.908Z,78.76
2022-08-11T02:18:59.882Z,78.55
2022-08-11T02:19:49.878Z,79.00
2022-08-11T02:20:39.880Z,78.76
2022-08-11T02:21:29.869Z,78.69
2022-08-11T02:22:19.840Z,78.55
2022-08-11T02:23:09.869Z,78.25
2022-08-11T02:24:04.975Z,78.25
2022-08-11T02:24:50.829Z,78.05
2022-08-11T02:25:39.809Z,78.15
2022-08-11T02:26:29.820Z,77.84
2022-08-11T02:27:19.807Z,78.05
2022-08-11T02:28:09.794Z,78.25
2022-08-11T02:28:59.771Z,78.35
2022-08-11T02:29:49.769Z,78.25
2022-08-11T02:30:39.758Z,78.19
2022-08-11T02:32:23.922Z,78.39
2022-08-11T02:32:30.049Z,78.28
2022-08-11T02:33:10.732Z,78.69
2022-08-11T02:33:59.716Z,78.49
2022-08-11T02:34:59.315Z,78.59
2022-08-11T02:35:40.708Z,78.69
2022-08-11T02:36:29.688Z,79.00
2022-08-11T02:37:23.502Z,79.20
2022-08-11T02:38:09.694Z,79.10
2022-08-11T02:38:59.666Z,79.10
2022-08-11T02:39:49.748Z,79.00
2022-08-11T02:40:39.656Z,79.10
2022-08-11T02:41:29.657Z,78.80
2022-08-11T02:42:32.098Z,79.10
2022-08-11T02:43:10.617Z,79.10
2022-08-11T02:43:59.604Z,79.30
2022-08-11T02:44:49.597Z,79.20
2022-08-11T02:45:39.597Z,79.54
2022-08-11T02:46:29.596Z,79.64
2022-08-11T02:47:19.594Z,79.54
2022-08-11T02:48:09.566Z,79.34
2022-08-11T02:48:59.558Z,79.64
2022-08-11T02:49:49.545Z,79.54
2022-08-11T02:50:40.546Z,79.64
2022-08-11T02:51:29.536Z,79.54
2022-08-11T02:52:19.517Z,79.44
2022-08-11T02:53:09.514Z,79.34
2022-08-11T02:53:59.524Z,79.75
2022-08-11T02:54:49.484Z,79.54
2022-08-11T02:55:56.052Z,79.75
2022-08-11T02:56:30.486Z,79.85
2022-08-11T02:57:19.477Z,80.36
2022-08-11T02:58:09.466Z,80.36
2022-08-11T02:58:59.446Z,80.46
2022-08-11T02:59:49.447Z,80.60
2022-08-11T03:00:39.416Z,80.70
2022-08-11T03:01:29.460Z,80.40
2022-08-11T03:02:19.415Z,80.60
2022-08-11T03:03:09.427Z,81.01
2022-08-11T03:03:59.377Z,80.91
2022-08-11T03:04:49.399Z,81.01
2022-08-11T03:05:39.356Z,81.21
2022-08-11T03:06:29.375Z,81.41
2022-08-11T03:07:28.537Z,81.11
2022-08-11T03:08:10.347Z,81.25
2022-08-11T03:08:59.344Z,81.56
2022-08-11T03:09:49.330Z,81.25
2022-08-11T03:10:39.343Z,81.25
2022-08-11T03:11:29.315Z,81.45
2022-08-11T03:12:19.292Z,81.86
2022-08-11T03:13:09.283Z,81.25
2022-08-11T03:13:59.276Z,81.21
2022-08-11T03:14:49.276Z,81.31
2022-08-11T03:15:39.274Z,81.11
2022-08-11T03:16:29.244Z,81.21
2022-08-11T03:17:19.244Z,81.45
2022-08-11T03:18:09.234Z,81.66
2022-08-11T03:18:59.225Z,81.66
2022-08-11T03:19:49.207Z,81.96
2022-08-11T03:20:39.361Z,81.66
2022-08-11T03:22:01.134Z,81.66
2022-08-11T03:22:20.194Z,81.56
2022-08-11T03:23:20.109Z,81.76
2022-08-11T03:24:00.173Z,81.82
2022-08-11T03:24:49.164Z,81.52
2022-08-11T03:25:39.137Z,81.93
2022-08-11T03:26:29.164Z,82.33
2022-08-11T03:27:19.121Z,82.07
2022-08-11T03:28:09.123Z,82.17
2022-08-11T03:28:59.103Z,82.07
2022-08-11T03:29:49.093Z,82.07
2022-08-11T03:30:39.105Z,82.57
2022-08-11T03:31:29.110Z,81.96
2022-08-11T03:32:19.072Z,81.66
2022-08-11T03:33:09.113Z,81.66
2022-08-11T03:34:02.754Z,81.86
2022-08-11T03:34:50.042Z,81.76
2022-08-11T03:35:39.040Z,81.76
2022-08-11T03:36:29.032Z,82.27
2022-08-11T03:37:19.008Z,82.37
2022-08-11T03:38:09.020Z,82.37
2022-08-11T03:38:59.002Z,82.47
2022-08-11T03:39:56.235Z,82.31
2022-08-11T03:40:39.982Z,82.61
2022-08-11T03:42:02.140Z,82.71
2022-08-11T03:42:19.972Z,82.82
2022-08-11T03:43:08.950Z,82.71
2022-08-11T03:43:58.996Z,82.51
2022-08-11T03:44:48.941Z,82.61
2022-08-11T03:45:41.101Z,82.71
2022-08-11T03:46:28.941Z,82.41
2022-08-11T03:47:18.899Z,82.37
2022-08-11T03:48:08.892Z,82.27
2022-08-11T03:48:58.890Z,82.27
2022-08-11T03:49:48.886Z,81.66
2022-08-11T03:50:38.879Z,81.35
2022-08-11T03:51:51.861Z,81.56
2022-08-11T03:52:19.879Z,81.56
2022-08-11T03:53:08.851Z,81.45
2022-08-11T03:53:58.831Z,81.56
2022-08-11T03:54:48.819Z,81.96
2022-08-11T03:55:38.801Z,81.76
2022-08-11T03:56:28.820Z,82.07
2022-08-11T03:57:18.808Z,81.96
2022-08-11T03:58:08.799Z,81.66
2022-08-11T03:58:58.780Z,81.66
2022-08-11T03:59:48.760Z,81.45
2022-08-11T04:00:38.749Z,81.66
2022-08-11T04:01:28.804Z,81.86
2022-08-11T04:02:18.760Z,82.21
2022-08-11T04:03:08.738Z,82.41
2022-08-11T04:03:58.731Z,82.41
2022-08-11T04:04:51.215Z,82.61
2022-08-11T04:05:38.690Z,82.82
2022-08-11T04:06:28.700Z,82.71
2022-08-11T04:07:18.678Z,82.82
2022-08-11T04:08:08.680Z,82.71
2022-08-11T04:08:58.650Z,82.71
2022-08-11T04:09:48.669Z,82.71
2022-08-11T04:10:38.629Z,82.82
2022-08-11T04:11:28.631Z,82.82
2022-08-11T04:12:36.744Z,83.02
2022-08-11T04:13:09.646Z,83.12
2022-08-11T04:13:58.599Z,83.23
2022-08-11T04:14:48.609Z,83.43
2022-08-11T04:15:38.588Z,83.12
2022-08-11T04:16:28.577Z,83.33
2022-08-11T04:17:18.597Z,83.23
2022-08-11T04:18:08.588Z,83.23
2022-08-11T04:18:58.545Z,83.02
2022-08-11T04:19:48.538Z,83.23
2022-08-11T04:20:38.539Z,83.43
2022-08-11T04:21:28.546Z,83.23
2022-08-11T04:22:18.533Z,83.33
2022-08-11T04:23:08.517Z,82.92
2022-08-11T04:24:35.989Z,83.02
2022-08-11T04:24:50.633Z,83.53
2022-08-11T04:25:57.605Z,83.02
2022-08-11T04:26:29.494Z,83.02
2022-08-11T04:27:19.197Z,83.12
2022-08-11T04:28:08.464Z,83.02
2022-08-11T04:28:59.447Z,83.33
2022-08-11T04:30:03.718Z,83.33
2022-08-11T04:30:40.639Z,83.33
2022-08-11T04:31:51.133Z,83.33
2022-08-11T04:32:19.418Z,83.23
2022-08-11T04:33:08.396Z,83.84
2022-08-11T04:33:58.388Z,83.94
2022-08-11T04:34:48.394Z,83.73
2022-08-11T04:35:38.377Z,83.63
2022-08-11T04:36:28.363Z,83.53
2022-08-11T04:37:18.336Z,83.94
2022-08-11T04:38:08.336Z,83.73
2022-08-11T04:38:58.337Z,83.63
2022-08-11T04:39:48.418Z,83.33
2022-08-11T04:40:38.316Z,83.43
2022-08-11T04:41:28.296Z,83.33
2022-08-11T04:42:18.283Z,83.12
2022-08-11T04:43:08.276Z,83.23
2022-08-11T04:44:05.490Z,83.23
2022-08-11T04:44:49.295Z,83.12
2022-08-11T04:45:38.248Z,83.23
2022-08-11T04:46:28.244Z,83.53
2022-08-11T04:47:18.236Z,83.63
2022-08-11T04:48:08.225Z,84.14
2022-08-11T04:48:58.215Z,84.04
2022-08-11T04:49:48.234Z,84.25
2022-08-11T04:50:38.203Z,84.14
2022-08-11T04:51:38.138Z,84.25
2022-08-11T04:52:18.175Z,84.14
2022-08-11T04:53:08.174Z,84.66
2022-08-11T04:53:58.167Z,84.45
2022-08-11T04:54:48.165Z,84.14
2022-08-11T04:55:38.135Z,84.34
2022-08-11T04:56:28.148Z,84.45
2022-08-11T04:57:18.142Z,84.45
2022-08-11T04:58:08.115Z,84.45
2022-08-11T04:58:58.114Z,84.45
2022-08-11T04:59:48.140Z,84.55
2022-08-11T05:00:38.075Z,84.45
2022-08-11T05:01:28.154Z,84.34
2022-08-11T05:02:18.127Z,84.25
2022-08-11T05:03:08.064Z,84.55
2022-08-11T05:03:58.054Z,84.25
2022-08-11T05:04:48.056Z,84.34
2022-08-11T05:05:38.046Z,84.45
2022-08-11T05:06:28.024Z,84.34
2022-08-11T05:07:18.004Z,84.34
2022-08-11T05:08:08.014Z,84.45
2022-08-11T05:08:57.993Z,84.14
2022-08-11T05:09:48.005Z,84.25
2022-08-11T05:10:43.273Z,84.04
2022-08-11T05:11:28.963Z,84.04
2022-08-11T05:12:17.957Z,84.14
2022-08-11T05:13:07.944Z,83.53
2022-08-11T05:13:57.962Z,83.63
2022-08-11T05:14:47.953Z,83.63
2022-08-11T05:15:43.006Z,83.94
2022-08-11T05:16:28.922Z,83.94
2022-08-11T05:17:17.910Z,83.94
2022-08-11T05:18:07.902Z,84.04
2022-08-11T05:18:57.882Z,83.94
2022-08-11T05:19:47.883Z,84.14
2022-08-11T05:20:37.875Z,84.55
2022-08-11T05:21:27.862Z,84.66
2022-08-11T05:22:17.882Z,84.66
2022-08-11T05:23:07.845Z,84.25
2022-08-11T05:23:57.854Z,84.34
2022-08-11T05:24:47.831Z,83.94
2022-08-11T05:26:42.952Z,84.34
2022-08-11T05:26:48.055Z,84.34
2022-08-11T05:27:19.093Z,84.25
2022-08-11T05:28:08.102Z,84.14
2022-08-11T05:28:57.875Z,84.34
2022-08-11T05:29:48.148Z,84.55
2022-08-11T05:30:37.990Z,84.55
2022-08-11T05:31:28.221Z,84.75
2022-08-11T05:32:17.828Z,84.86
2022-08-11T05:33:11.588Z,84.86
2022-08-11T05:33:58.081Z,84.75
2022-08-11T05:34:48.167Z,84.45
2022-08-11T05:36:01.462Z,84.45
2022-08-11T05:36:28.771Z,84.66
2022-08-11T05:37:26.774Z,84.55
2022-08-11T05:38:08.871Z,84.55
2022-08-11T05:38:58.085Z,84.41
2022-08-11T05:39:48.397Z,84.45
2022-08-11T05:40:38.174Z,84.45
2022-08-11T05:41:27.938Z,84.45
2022-08-11T05:42:29.595Z,84.86
2022-08-11T05:43:08.901Z,84.75
2022-08-11T05:44:20.215Z,84.86
2022-08-11T05:44:48.975Z,84.96
2022-08-11T05:46:02.929Z,84.96
2022-08-11T05:46:28.852Z,84.82
2022-08-11T05:47:17.861Z,84.75
2022-08-11T05:48:07.922Z,84.61
2022-08-11T05:48:57.844Z,84.20
2022-08-11T05:49:47.561Z,84.92
2022-08-11T05:50:37.673Z,84.82
2022-08-11T05:51:29.922Z,84.11
2022-08-11T05:52:17.701Z,84.31
2022-08-11T05:53:09.322Z,83.90
2022-08-11T05:53:57.531Z,84.41
2022-08-11T05:54:47.601Z,84.58
2022-08-11T05:56:01.658Z,84.47
2022-08-11T05:56:28.458Z,83.96
2022-08-11T05:57:39.708Z,83.96
2022-08-11T05:58:08.461Z,84.17
2022-08-11T05:58:57.448Z,84.47
2022-08-11T05:59:47.430Z,84.67
2022-08-11T06:00:37.420Z,84.47
2022-08-11T06:01:27.434Z,84.47
2022-08-11T06:02:17.430Z,84.06
2022-08-11T06:03:07.462Z,84.17
2022-08-11T06:03:58.832Z,83.65
2022-08-11T06:04:47.381Z,83.35
2022-08-11T06:05:43.592Z,83.51
2022-08-11T06:06:28.369Z,84.03
2022-08-11T06:07:17.352Z,83.72
2022-08-11T06:08:07.352Z,83.21
2022-08-11T06:08:57.319Z,83.21
2022-08-11T06:09:47.330Z,83.42
2022-08-11T06:10:37.319Z,83.51
2022-08-11T06:11:43.765Z,83.62
2022-08-11T06:12:18.298Z,83.31
2022-08-11T06:17:39.081Z,83.48
2022-08-11T06:18:27.211Z,83.48
2022-08-11T06:19:17.219Z,83.37
2022-08-11T06:20:07.830Z,83.34
2022-08-11T06:20:57.212Z,82.93
2022-08-11T06:21:47.181Z,83.64
2022-08-11T06:22:37.313Z,83.03
2022-08-11T06:23:27.243Z,83.34
2022-08-11T06:24:17.200Z,83.03
2022-08-11T06:25:07.161Z,82.73
2022-08-11T06:25:57.141Z,82.48
2022-08-11T06:27:09.098Z,82.38
2022-08-11T06:27:38.121Z,82.68
2022-08-11T06:32:58.587Z,82.04
2022-08-11T06:33:48.539Z,82.14
2022-08-11T06:34:38.536Z,82.04
2022-08-11T06:35:28.537Z,81.53
2022-08-11T06:36:18.531Z,81.02
2022-08-11T06:37:08.500Z,80.62
2022-08-11T06:37:58.802Z,81.53
2022-08-11T06:38:48.502Z,81.43
2022-08-11T06:39:38.532Z,80.58
2022-08-11T06:40:28.489Z,81.29
2022-08-11T06:41:18.459Z,81.39
2022-08-11T06:42:08.438Z,80.88
2022-08-11T06:42:58.449Z,80.47
2022-08-11T06:43:52.778Z,81.05
2022-08-11T06:44:39.428Z,80.24
2022-08-11T06:45:28.407Z,80.44
2022-08-11T06:46:28.159Z,80.54
2022-08-11T06:47:09.411Z,79.69
2022-08-11T06:47:58.406Z,79.28
2022-08-11T06:48:48.368Z,78.57
2022-08-11T06:49:38.378Z,78.03
2022-08-11T06:50:28.358Z,78.13
2022-08-11T06:51:18.361Z,77.08
2022-08-11T06:52:12.811Z,76.13
2022-08-11T06:52:59.348Z,75.08
2022-08-11T06:54:03.244Z,74.24
2022-08-11T06:54:39.427Z,73.73
2022-08-11T06:55:55.848Z,73.29
2022-08-11T06:56:19.325Z,72.75
2022-08-11T06:57:59.291Z,71.20
2022-08-11T06:58:48.275Z,70.46
2022-08-11T06:59:38.248Z,70.05
2022-08-11T07:00:28.259Z,69.51
2022-08-11T07:01:18.297Z,68.98
2022-08-11T07:02:08.336Z,68.77
2022-08-11T07:02:58.218Z,68.67
2022-08-11T07:03:48.218Z,68.57
2022-08-11T07:04:38.188Z,68.17
2022-08-11T07:05:28.186Z,67.53
2022-08-11T07:06:18.178Z,67.43
2022-08-11T07:07:08.178Z,66.89
2022-08-11T07:07:58.176Z,67.27
2022-08-11T07:08:49.167Z,66.56
2022-08-11T07:09:38.137Z,66.22
2022-08-11T07:10:28.166Z,65.92
2022-08-11T07:11:18.126Z,65.72
2022-08-11T07:12:08.127Z,65.09
2022-08-11T07:12:58.146Z,67.30
2022-08-11T07:13:48.105Z,66.60
2022-08-11T07:14:38.722Z,67.71
2022-08-11T07:16:13.122Z,67.54
2022-08-11T07:16:19.079Z,66.93
2022-08-11T07:17:09.069Z,65.49
2022-08-11T07:17:58.037Z,65.29
2022-08-11T07:18:48.055Z,65.16
2022-08-11T07:19:38.018Z,64.75
2022-08-11T07:20:28.038Z,64.05
2022-08-11T07:21:59.925Z,63.95
2022-08-11T07:22:09.014Z,64.15
2022-08-11T07:22:58.007Z,64.22
2022-08-11T07:23:47.999Z,64.42
2022-08-11T07:24:59.549Z,63.59
2022-08-11T07:25:28.977Z,62.05
2022-08-11T07:26:17.977Z,61.82
2022-08-11T07:27:08.237Z,61.49
2022-08-11T07:27:57.927Z,61.18
2022-08-11T07:28:47.941Z,59.55
2022-08-11T07:29:37.926Z,59.01
2022-08-11T07:30:27.941Z,58.51
2022-08-11T07:31:17.905Z,58.89
2022-08-11T07:32:07.967Z,59.19
2022-08-11T07:32:57.887Z,58.59
2022-08-11T07:34:08.077Z,57.48
2022-08-11T07:34:38.866Z,57.79
2022-08-11T07:35:27.863Z,57.06
2022-08-11T07:36:17.864Z,57.35
2022-08-11T07:37:07.826Z,56.63
2022-08-11T07:38:01.842Z,55.93
2022-08-11T07:38:48.816Z,56.00
2022-08-11T07:39:37.859Z,56.30
2022-08-11T07:40:27.787Z,56.10
2022-08-11T07:41:17.797Z,55.60
2022-08-11T07:42:07.809Z,55.20
2022-08-11T07:42:57.766Z,55.40
2022-08-11T07:43:47.786Z,54.77
2022-08-11T07:44:37.747Z,54.87
2022-08-11T07:45:27.734Z,54.57
2022-08-11T07:46:17.718Z,53.97
2022-08-11T07:47:07.728Z,53.94
2022-08-11T07:47:57.716Z,54.14
2022-08-11T07:48:47.716Z,54.55
2022-08-11T07:49:37.697Z,53.64
2022-08-11T07:50:27.711Z,53.94
2022-08-11T07:51:17.678Z,53.74
2022-08-11T07:52:07.679Z,53.24
2022-08-11T07:52:57.681Z,53.44
2022-08-11T07:53:57.781Z,52.84
2022-08-11T07:54:38.626Z,52.42
2022-08-11T07:55:51.115Z,52.52
2022-08-11T07:56:19.586Z,52.52
2022-08-11T07:57:09.609Z,52.12
2022-08-11T07:58:15.225Z,52.22
2022-08-11T07:58:52.375Z,52.82
2022-08-11T08:00:03.935Z,52.22
2022-08-11T08:00:30.040Z,52.42
2022-08-11T08:01:22.548Z,52.39
2022-08-11T08:02:08.597Z,52.09
2022-08-11T08:02:57.559Z,51.89
2022-08-11T08:03:54.156Z,51.79
2022-08-11T08:04:38.539Z,51.59
2022-08-11T08:05:27.531Z,51.69
2022-08-11T08:06:35.738Z,51.29
2022-08-11T08:07:08.507Z,51.57
2022-08-11T08:07:57.517Z,51.17
2022-08-11T08:08:47.477Z,50.97
2022-08-11T08:09:37.889Z,51.47
2022-08-11T08:10:27.457Z,51.47
2022-08-11T08:11:18.291Z,51.37
2022-08-11T08:12:07.436Z,51.47
2022-08-11T08:12:57.437Z,51.47
2022-08-11T08:13:47.448Z,51.47
2022-08-11T08:14:37.426Z,51.17
2022-08-11T08:15:27.406Z,51.04
2022-08-11T08:16:17.397Z,50.74
2022-08-11T08:17:07.386Z,50.65
2022-08-11T08:18:09.720Z,50.84
2022-08-11T08:18:48.387Z,50.84
2022-08-11T08:19:37.366Z,50.95
2022-08-11T08:20:27.364Z,51.04
2022-08-11T08:21:17.327Z,50.84
2022-08-11T08:22:11.955Z,51.25
2022-08-11T08:22:58.314Z,51.15
2022-08-11T08:23:47.318Z,50.82
2022-08-11T08:24:38.316Z,51.02
2022-08-11T08:25:27.291Z,50.92
2022-08-11T08:26:17.317Z,50.22
2022-08-11T08:27:07.276Z,49.82
2022-08-11T08:27:57.257Z,49.90
2022-08-11T08:28:47.267Z,49.50
2022-08-11T08:29:37.260Z,48.90
2022-08-11T08:30:27.237Z,49.50
2022-08-11T08:31:17.238Z,49.10
2022-08-11T08:32:07.247Z,49.40
2022-08-11T08:32:57.227Z,49.30
2022-08-11T08:33:47.197Z,49.30
2022-08-11T08:34:37.198Z,49.60
2022-08-11T08:35:30.691Z,49.70
2022-08-11T08:36:18.197Z,49.80
2022-08-11T08:37:16.267Z,48.90
2022-08-11T08:37:58.158Z,48.80
2022-08-11T08:38:47.159Z,48.60
2022-08-11T08:39:37.198Z,48.78
2022-08-11T08:40:27.144Z,48.48
2022-08-11T08:41:17.126Z,48.58
2022-08-11T08:42:07.122Z,48.68
2022-08-11T08:42:57.117Z,48.38
2022-08-11T08:43:48.482Z,48.28
2022-08-11T08:44:40.804Z,48.25
2022-08-11T08:45:27.068Z,48.46
2022-08-11T08:46:17.058Z,48.16
2022-08-11T08:47:07.067Z,48.16
2022-08-11T08:47:57.064Z,47.45
2022-08-11T08:48:47.051Z,46.96
2022-08-11T08:49:40.546Z,47.06
2022-08-11T08:50:27.521Z,46.86
2022-08-11T08:51:17.319Z,46.86
2022-08-11T08:52:30.754Z,46.76
2022-08-11T08:52:58.008Z,46.76
2022-08-11T08:53:52.595Z,47.06
2022-08-11T08:54:37.970Z,46.76
2022-08-11T08:55:26.976Z,46.56
2022-08-11T08:56:16.969Z,47.16
2022-08-11T08:57:06.939Z,46.84
2022-08-11T08:57:56.938Z,46.44
2022-08-11T08:58:46.938Z,46.54
2022-08-11T08:59:47.672Z,46.64
2022-08-11T09:00:27.908Z,46.54
2022-08-11T09:01:17.076Z,46.14
2022-08-11T09:02:06.878Z,46.51
2022-08-11T09:02:56.888Z,46.22
2022-08-11T09:04:04.787Z,46.01
2022-08-11T09:04:37.870Z,46.31
2022-08-11T09:05:26.859Z,46.51
2022-08-11T09:06:16.838Z,46.01
2022-08-11T09:07:06.827Z,45.42
2022-08-11T09:07:56.830Z,45.32
2022-08-11T09:08:46.826Z,45.50
2022-08-11T09:09:37.800Z,45.30
2022-08-11T09:10:26.789Z,45.40
2022-08-11T09:11:16.797Z,45.30
2022-08-11T09:12:06.777Z,45.20
2022-08-11T09:12:56.770Z,45.00
2022-08-11T09:13:46.773Z,45.50
2022-08-11T09:14:37.788Z,45.50
2022-08-11T09:15:26.741Z,45.30
2022-08-11T09:16:16.736Z,45.50
2022-08-11T09:17:06.717Z,46.39
2022-08-11T09:17:56.709Z,45.70
2022-08-11T09:18:46.709Z,45.57
2022-08-11T09:19:36.679Z,45.67
2022-08-11T09:20:26.710Z,44.88
2022-08-11T09:21:44.495Z,44.78
2022-08-11T09:22:07.668Z,45.37
2022-08-11T09:23:29.470Z,44.68
2022-08-11T09:24:08.890Z,44.88
2022-08-11T09:24:37.628Z,44.88
2022-08-11T09:25:26.640Z,44.58
2022-08-11T09:26:16.616Z,44.68
2022-08-11T09:27:06.625Z,43.98
2022-08-11T09:27:56.590Z,44.18
2022-08-11T09:28:46.593Z,44.58
2022-08-11T09:29:36.568Z,44.78
2022-08-11T09:30:26.579Z,44.48
2022-08-11T09:31:16.642Z,44.46
2022-08-11T09:32:06.559Z,43.96
2022-08-11T09:32:56.530Z,44.46
2022-08-11T09:33:46.531Z,43.86
2022-08-11T09:34:36.536Z,44.06
2022-08-11T09:35:26.519Z,44.06
2022-08-11T09:36:16.520Z,43.96
2022-08-11T09:37:06.500Z,44.06
2022-08-11T09:37:56.700Z,43.96
2022-08-11T09:38:49.567Z,43.86
2022-08-11T09:39:36.570Z,43.86
2022-08-11T09:40:27.311Z,43.76
2022-08-11T09:41:16.449Z,44.24
2022-08-11T09:42:06.460Z,44.34
2022-08-11T09:42:57.421Z,43.74
2022-08-11T09:43:46.413Z,43.64
2022-08-11T09:44:36.409Z,43.94
2022-08-11T09:45:26.430Z,43.64
2022-08-11T09:46:16.400Z,43.84
2022-08-11T09:47:06.397Z,44.24
2022-08-11T09:47:56.380Z,44.24
2022-08-11T09:48:46.359Z,43.94
2022-08-11T09:49:36.354Z,43.94
2022-08-11T09:50:26.360Z,43.74
2022-08-11T09:51:16.328Z,43.72
2022-08-11T09:52:06.327Z,43.62
2022-08-11T09:53:34.812Z,43.82
2022-08-11T09:54:03.545Z,43.52
2022-08-11T09:54:37.300Z,43.32
2022-08-11T09:55:26.310Z,43.92
2022-08-11T09:56:16.268Z,42.93
2022-08-11T09:57:06.290Z,43.23
2022-08-11T09:57:56.249Z,43.44
2022-08-11T09:58:46.258Z,43.15
2022-08-11T09:59:36.241Z,43.82
2022-08-11T10:00:26.249Z,43.72
2022-08-11T10:01:16.272Z,43.42
2022-08-11T10:02:06.220Z,43.02
2022-08-11T10:02:56.191Z,43.02
2022-08-11T10:03:46.195Z,43.62
2022-08-11T10:04:36.171Z,42.72
2022-08-11T10:05:26.171Z,43.13
2022-08-11T10:06:16.180Z,42.72
2022-08-11T10:07:06.148Z,42.93
2022-08-11T10:07:56.150Z,43.30
2022-08-11T10:08:46.152Z,43.50
2022-08-11T10:09:36.130Z,43.20
2022-08-11T10:10:26.120Z,43.68
2022-08-11T10:11:16.121Z,42.49
2022-08-11T10:12:06.102Z,43.01
2022-08-11T10:12:56.080Z,43.80
2022-08-11T10:14:31.615Z,43.40
2022-08-11T10:14:40.119Z,43.08
2022-08-11T10:15:27.073Z,42.79
2022-08-11T10:16:16.883Z,42.58
2022-08-11T10:17:06.043Z,42.27
2022-08-11T10:17:56.043Z,41.87
2022-08-11T10:18:46.032Z,41.67
2022-08-11T10:19:36.021Z,41.97
2022-08-11T10:20:26.071Z,41.87
2022-08-11T10:21:15.992Z,41.38
2022-08-11T10:22:05.980Z,41.47
2022-08-11T10:22:55.982Z,40.98
2022-08-11T10:24:01.325Z,41.08
2022-08-11T10:24:36.962Z,41.17
2022-08-11T10:25:25.944Z,40.88
2022-08-11T10:26:15.942Z,40.48
2022-08-11T10:27:05.931Z,40.78
2022-08-11T10:28:28.644Z,40.98
2022-08-11T10:29:11.680Z,40.09
2022-08-11T10:29:37.524Z,40.38
2022-08-11T10:30:26.981Z,40.48
2022-08-11T10:31:16.541Z,40.09
2022-08-11T10:32:05.885Z,40.28
2022-08-11T10:32:58.817Z,40.58
2022-08-11T10:33:57.748Z,40.19
2022-08-11T10:34:36.852Z,40.09
2022-08-11T10:35:25.842Z,40.68
2022-08-11T10:36:16.778Z,41.46
2022-08-11T10:37:05.820Z,39.87
2022-08-11T10:38:07.544Z,40.07
2022-08-11T10:38:46.814Z,39.97
2022-08-11T10:39:35.848Z,40.17
2022-08-11T10:40:25.792Z,40.47
2022-08-11T10:41:15.762Z,39.97
2022-08-11T10:42:08.920Z,39.57
2022-08-11T10:42:58.221Z,40.36
2022-08-11T10:44:02.403Z,39.85
2022-08-11T10:44:36.722Z,39.85
2022-08-11T10:45:25.717Z,40.15
2022-08-11T10:46:15.717Z,40.34
2022-08-11T10:47:05.722Z,40.25
2022-08-11T10:47:55.703Z,39.55
2022-08-11T10:48:45.693Z,39.25
2022-08-11T10:49:35.673Z,39.85
2022-08-11T10:50:25.663Z,39.55
2022-08-11T10:51:15.669Z,39.65
2022-08-11T10:52:06.633Z,39.06
2022-08-11T10:52:55.643Z,39.25
2022-08-11T10:53:45.613Z,38.66